Historique des mesures à Cassis (13260), France
Quotidien Résumé Fevrier 9, 2018 Unités:  US    Métrique   Métrique/US
« Précédent (Jour)
Suivant (Jour) »
Quotidien Hebdomadaire Mensuel Annuel Période au choix
  Maximum: Minimum: Moyenne:
Température: 32 °F 36.3 °F 41.2 °F
Point de rosée: 32 °F 28.6 °F 31.1 °F
Humidité: Humidity % 56 % 64 %
Vitesse du vent: WindSpeedKMH mph 0.0 mph 4 mph
Rafales: WindSpeedGustKMH mph - -
Vent:- - SW
Pression: 0 in 29.8 in -
Précipitations: 0.0 in    
Historical Graphs
 
 
Mesures pour : Fevrier 9, 2018
Heure Temperature Point de rosée Pression Vent Vitesse du vent Rafales Humidité Pluie (par heure)
32 °F 32 °F 0 in Calm     Humidity % HourlyPrecipMM in
00:12 38.3 °F 28.9 °F 30 in Calm     69 % 0.0 in
01:12 37.8 °F 29.1 °F 30 in Calm     71 % 0.0 in
02:12 37.4 °F 29.5 °F 29.9 in Calm     73 % 0.0 in
03:12 37 °F 29.5 °F 29.9 in Calm   2.9 mph 74 % 0.0 in
04:12 36.3 °F 28.8 °F 29.9 in North 6.1 mph 9.3 mph 74 % 0.0 in
05:12 36.3 °F 28.8 °F 29.9 in North 6.8 mph 6.8 mph 74 % 0.0 in
06:12 36.3 °F 28.8 °F 29.9 in NW 1.4 mph 2.1 mph 74 % 0.0 in
07:12 36.7 °F 28.6 °F 29.9 in Calm     72 % 0.0 in
08:12 37 °F 28.6 °F 29.9 in Calm   2.6 mph 71 % 0.0 in
09:12 40.8 °F 30.4 °F 29.9 in Calm     66 % 0.0 in
10:12 42.4 °F 31.8 °F 29.9 in NNW 4.0 mph 4.0 mph 66 % 0.0 in
11:12 46 °F 34.2 °F 29.9 in ESE 7.6 mph 7.6 mph 63 % 0.0 in
12:12 48 °F 34.3 °F 29.9 in ESE 6.1 mph 6.1 mph 59 % 0.0 in
13:12 48.6 °F 33.4 °F 29.9 in West 2.9 mph 2.9 mph 56 % 0.0 in
14:12 47.8 °F 33.8 °F 29.9 in Calm   5.5 mph 58 % 0.0 in
15:12 48 °F 34 °F 29.8 in NW 14.8 mph 15.8 mph 58 % 0.0 in
16:12 46.6 °F 33.1 °F 29.8 in NW 16.9 mph 16.9 mph 59 % 0.0 in
17:12 45.1 °F 32.5 °F 29.8 in NNW 10.5 mph 14.8 mph 61 % 0.0 in
18:12 43 °F 31.3 °F 29.8 in NW 2.6 mph 10.5 mph 63 % 0.0 in
19:12 42.3 °F 30.9 °F 29.8 in WNW 7.2 mph 10.1 mph 64 % 0.0 in
20:12 41.7 °F 30.7 °F 29.8 in WNW 10.5 mph 10.5 mph 65 % 0.0 in
21:12 41 °F 30.6 °F 29.8 in Calm     66 % 0.0 in
22:12 41.2 °F 30.9 °F 29.8 in Calm   1.1 mph 67 % 0.0 in
23:12 42.4 °F 31.5 °F 29.8 in North 2.1 mph 2.1 mph 65 % 0.0 in
Observations météo à CASSIS
WU-History script by Weather Underground - 1 mb